createdAt,value
2023-03-12T00:00:01.560Z,49.87
2023-03-12T00:00:33.240Z,50.12
2023-03-12T00:01:34.624Z,49.55
2023-03-12T00:02:06.342Z,49.50
2023-03-12T00:02:38.254Z,49.27
2023-03-12T00:03:10.313Z,49.54
2023-03-12T00:03:42.122Z,49.71
2023-03-12T00:04:13.810Z,49.47
2023-03-12T00:04:45.490Z,49.49
2023-03-12T00:05:17.226Z,49.12
2023-03-12T00:05:48.901Z,49.54
2023-03-12T00:06:21.701Z,49.40
2023-03-12T00:06:53.485Z,49.20
2023-03-12T00:07:25.237Z,49.33
2023-03-12T00:07:59.884Z,49.50
2023-03-12T00:08:31.567Z,49.51
2023-03-12T00:09:04.748Z,50.11
2023-03-12T00:09:38.759Z,49.72
2023-03-12T00:10:11.249Z,49.85
2023-03-12T00:10:42.913Z,49.97
2023-03-12T00:11:17.458Z,50.27
2023-03-12T00:11:49.250Z,50.55
2023-03-12T00:12:20.951Z,50.26
2023-03-12T00:12:53.065Z,50.26
2023-03-12T00:13:24.826Z,50.22
2023-03-12T00:13:58.706Z,50.58
2023-03-12T00:14:30.577Z,50.51
2023-03-12T00:15:02.267Z,50.89
2023-03-12T00:15:39.075Z,50.34
2023-03-12T00:16:14.236Z,50.57
2023-03-12T00:16:46.179Z,50.41
2023-03-12T00:17:17.865Z,50.24
2023-03-12T00:17:50.084Z,50.47
2023-03-12T00:18:21.828Z,50.61
2023-03-12T00:18:55.474Z,50.80
2023-03-12T00:19:27.852Z,50.70
2023-03-12T00:19:59.565Z,50.66
2023-03-12T00:20:31.478Z,50.92
2023-03-12T00:21:03.257Z,50.83
2023-03-12T00:21:34.963Z,51.12
2023-03-12T00:22:06.662Z,51.31
2023-03-12T00:22:38.913Z,51.08
2023-03-12T00:23:10.585Z,50.80
2023-03-12T00:23:42.262Z,51.14
2023-03-12T00:24:14.121Z,51.33
2023-03-12T00:24:51.402Z,50.92
2023-03-12T00:25:23.124Z,51.14
2023-03-12T00:25:54.992Z,51.39
2023-03-12T00:26:26.691Z,50.79
2023-03-12T00:26:58.330Z,50.26
2023-03-12T00:27:30.013Z,50.30
2023-03-12T00:28:01.712Z,50.90
2023-03-12T00:28:35.154Z,50.73
2023-03-12T00:29:06.835Z,50.76
2023-03-12T00:29:38.543Z,50.90
2023-03-12T00:30:11.552Z,50.86
2023-03-12T00:30:43.905Z,51.02
2023-03-12T00:31:28.738Z,51.25
2023-03-12T00:32:00.526Z,51.33
2023-03-12T00:32:36.826Z,51.25
2023-03-12T00:33:08.519Z,50.88
2023-03-12T00:33:40.564Z,51.25
2023-03-12T00:34:12.242Z,51.08
2023-03-12T00:34:44.876Z,51.05
2023-03-12T00:35:16.600Z,50.67
2023-03-12T00:35:48.329Z,50.54
2023-03-12T00:36:24.847Z,50.56
2023-03-12T00:36:56.615Z,50.60
2023-03-12T00:37:28.320Z,50.48
2023-03-12T00:38:00.138Z,50.89
2023-03-12T00:38:31.816Z,50.87
2023-03-12T00:39:03.998Z,50.56
2023-03-12T00:39:35.949Z,50.66
2023-03-12T00:40:10.097Z,50.60
2023-03-12T00:40:41.840Z,50.47
2023-03-12T00:41:13.517Z,50.88
2023-03-12T00:41:45.536Z,50.28
2023-03-12T00:42:18.153Z,50.55
2023-03-12T00:42:49.865Z,50.46
2023-03-12T00:43:21.568Z,50.49
2023-03-12T00:43:53.809Z,50.52
2023-03-12T00:44:25.586Z,50.35
2023-03-12T00:44:57.293Z,50.44
2023-03-12T00:45:29.053Z,50.32
2023-03-12T00:46:00.821Z,50.24
2023-03-12T00:46:32.640Z,50.53
2023-03-12T00:47:04.865Z,50.54
2023-03-12T00:47:36.629Z,50.90
2023-03-12T00:48:09.393Z,50.36
2023-03-12T00:48:41.472Z,50.05
2023-03-12T00:49:13.094Z,50.05
2023-03-12T00:49:44.881Z,50.23
2023-03-12T00:50:16.587Z,50.63
2023-03-12T00:50:48.319Z,50.62
2023-03-12T00:51:20.293Z,50.29
2023-03-12T00:51:52.667Z,50.21
2023-03-12T00:52:24.368Z,50.74
2023-03-12T00:52:56.132Z,50.46
2023-03-12T00:53:27.808Z,50.36
2023-03-12T00:53:59.738Z,50.49
2023-03-12T00:54:31.485Z,50.14
2023-03-12T00:55:03.340Z,50.60
2023-03-12T00:55:35.270Z,50.91
2023-03-12T00:56:07.533Z,51.03
2023-03-12T00:56:39.204Z,51.06
2023-03-12T00:57:11.046Z,51.07
2023-03-12T00:57:42.885Z,51.36
2023-03-12T00:58:14.545Z,51.10
2023-03-12T00:58:46.416Z,50.90
2023-03-12T00:59:18.113Z,51.29
2023-03-12T00:59:49.815Z,51.41
2023-03-12T01:00:21.902Z,51.68
2023-03-12T01:00:53.702Z,51.45
2023-03-12T01:01:27.647Z,51.87
2023-03-12T01:01:59.345Z,51.73
2023-03-12T01:02:31.032Z,51.49
2023-03-12T01:03:02.741Z,51.53
2023-03-12T01:03:34.433Z,51.86
2023-03-12T01:04:06.202Z,52.06
2023-03-12T01:04:37.974Z,51.86
2023-03-12T01:05:12.263Z,51.98
2023-03-12T01:05:44.029Z,52.06
2023-03-12T01:06:15.701Z,52.90
2023-03-12T01:06:47.451Z,52.42
2023-03-12T01:07:19.136Z,52.19
2023-03-12T01:07:51.190Z,52.45
2023-03-12T01:08:23.861Z,52.86
2023-03-12T01:08:55.870Z,52.59
2023-03-12T01:09:27.626Z,52.82
2023-03-12T01:09:59.350Z,52.74
2023-03-12T01:10:31.130Z,53.19
2023-03-12T01:11:03.017Z,53.02
2023-03-12T01:11:36.015Z,53.33
2023-03-12T01:12:08.072Z,52.85
2023-03-12T01:12:39.904Z,52.83
2023-03-12T01:13:11.736Z,53.26
2023-03-12T01:13:43.513Z,53.19
2023-03-12T01:14:15.180Z,53.06
2023-03-12T01:14:46.892Z,53.27
2023-03-12T01:15:19.486Z,53.22
2023-03-12T01:15:51.167Z,53.25
2023-03-12T01:16:28.163Z,53.11
2023-03-12T01:16:59.940Z,53.21
2023-03-12T01:17:31.705Z,53.16
2023-03-12T01:18:03.638Z,53.41
2023-03-12T01:18:35.562Z,53.33
2023-03-12T01:19:07.230Z,53.46
2023-03-12T01:19:38.976Z,53.21
2023-03-12T01:20:11.424Z,53.22
2023-03-12T01:20:43.376Z,53.74
2023-03-12T01:21:15.092Z,52.96
2023-03-12T01:21:46.784Z,53.08
2023-03-12T01:22:18.472Z,53.42
2023-03-12T01:22:50.890Z,53.47
2023-03-12T01:23:22.577Z,53.47
2023-03-12T01:23:55.785Z,53.30
2023-03-12T01:24:27.411Z,53.96
2023-03-12T01:24:59.090Z,53.30
2023-03-12T01:25:30.803Z,53.54
2023-03-12T01:26:02.859Z,53.38
2023-03-12T01:26:34.604Z,53.51
2023-03-12T01:27:06.374Z,53.30
2023-03-12T01:27:38.108Z,53.45
2023-03-12T01:28:09.911Z,53.14
2023-03-12T01:28:41.639Z,53.47
2023-03-12T01:29:13.329Z,52.96
2023-03-12T01:29:45.004Z,53.32
2023-03-12T01:30:16.835Z,53.50
2023-03-12T01:30:48.891Z,53.26
2023-03-12T01:31:20.823Z,53.76
2023-03-12T01:31:52.969Z,54.23
2023-03-12T01:32:24.746Z,54.04
2023-03-12T01:32:56.507Z,53.63
2023-03-12T01:33:28.185Z,53.32
2023-03-12T01:33:59.889Z,53.52
2023-03-12T01:34:33.516Z,53.63
2023-03-12T01:35:06.432Z,53.47
2023-03-12T01:35:40.048Z,53.30
2023-03-12T01:36:29.188Z,53.15
2023-03-12T01:37:01.291Z,52.94
2023-03-12T01:37:33.599Z,53.16
2023-03-12T01:38:07.343Z,53.44
2023-03-12T01:38:39.016Z,53.21
2023-03-12T01:39:11.051Z,53.68
2023-03-12T01:39:42.773Z,53.70
2023-03-12T01:40:17.199Z,53.09
2023-03-12T01:40:48.893Z,52.95
2023-03-12T01:41:23.085Z,53.44
2023-03-12T01:41:54.872Z,52.48
2023-03-12T01:42:26.979Z,52.17
2023-03-12T01:42:58.785Z,52.64
2023-03-12T01:43:34.057Z,52.87
2023-03-12T01:44:06.084Z,52.36
2023-03-12T01:45:31.978Z,52.80
2023-03-12T01:46:24.259Z,52.45
2023-03-12T01:46:56.064Z,52.27
2023-03-12T01:47:31.998Z,51.86
2023-03-12T01:48:03.853Z,51.97
2023-03-12T01:48:42.856Z,51.87
2023-03-12T01:49:16.338Z,52.38
2023-03-12T01:49:50.049Z,52.25
2023-03-12T01:50:21.781Z,52.24
2023-03-12T01:50:53.535Z,51.42
2023-03-12T01:51:30.591Z,51.54
2023-03-12T01:52:06.793Z,51.00
2023-03-12T01:52:39.500Z,50.72
2023-03-12T01:53:12.192Z,50.96
2023-03-12T01:53:49.488Z,50.80
2023-03-12T01:54:42.697Z,50.79
2023-03-12T01:55:17.594Z,51.40
2023-03-12T01:55:50.648Z,51.09
2023-03-12T01:56:25.397Z,51.13
2023-03-12T01:56:58.363Z,51.25
2023-03-12T01:57:48.413Z,51.32
2023-03-12T01:58:20.296Z,51.23
2023-03-12T01:58:58.909Z,50.89
2023-03-12T01:59:41.025Z,50.52
2023-03-12T02:00:17.172Z,51.03
2023-03-12T02:00:49.070Z,51.67
2023-03-12T02:01:23.003Z,51.73
2023-03-12T02:01:54.858Z,51.50
2023-03-12T02:02:28.862Z,51.48
2023-03-12T02:03:06.125Z,51.41
2023-03-12T02:03:38.105Z,51.52
2023-03-12T02:04:11.738Z,51.43
2023-03-12T02:04:45.956Z,51.69
2023-03-12T02:06:03.268Z,51.33
2023-03-12T02:06:44.033Z,51.69
2023-03-12T02:07:17.177Z,51.17
2023-03-12T02:07:49.245Z,51.40
2023-03-12T02:08:23.759Z,51.42
2023-03-12T02:08:57.502Z,51.18
2023-03-12T02:09:32.389Z,51.52
2023-03-12T02:10:05.551Z,51.83
2023-03-12T02:10:37.759Z,51.67
2023-03-12T02:11:09.588Z,51.85
2023-03-12T02:11:41.363Z,51.57
2023-03-12T02:12:13.235Z,51.40
2023-03-12T02:12:45.189Z,51.21
2023-03-12T02:13:17.152Z,50.76
2023-03-12T02:13:48.828Z,51.03
2023-03-12T02:14:20.883Z,51.30
2023-03-12T02:14:52.784Z,51.45
2023-03-12T02:15:24.612Z,51.42
2023-03-12T02:15:56.295Z,51.87
2023-03-12T02:16:28.866Z,51.58
2023-03-12T02:17:00.864Z,51.53
2023-03-12T02:17:32.836Z,51.20
2023-03-12T02:18:09.756Z,51.29
2023-03-12T02:18:41.494Z,51.48
2023-03-12T02:19:23.525Z,51.78
2023-03-12T02:20:19.951Z,52.11
2023-03-12T02:21:30.446Z,51.77
2023-03-12T02:22:03.549Z,51.76
2023-03-12T02:22:44.170Z,51.94
2023-03-12T02:23:34.380Z,51.97
2023-03-12T02:24:43.348Z,51.92
2023-03-12T02:25:35.629Z,52.11
2023-03-12T02:26:09.081Z,51.64
2023-03-12T02:26:41.155Z,52.01
2023-03-12T02:27:13.065Z,52.16
2023-03-12T02:27:46.112Z,52.58
2023-03-12T02:28:21.899Z,52.07
2023-03-12T02:28:54.868Z,51.69
2023-03-12T02:29:32.021Z,52.16
2023-03-12T02:30:05.250Z,52.10
2023-03-12T02:30:39.259Z,51.80
2023-03-12T02:31:14.484Z,51.48
2023-03-12T02:31:53.098Z,51.39
2023-03-12T02:32:29.636Z,51.51
2023-03-12T02:33:06.171Z,51.18
2023-03-12T02:33:37.886Z,51.32
2023-03-12T02:34:09.856Z,51.49
2023-03-12T02:34:41.507Z,51.57
2023-03-12T02:35:17.068Z,51.68
2023-03-12T02:35:48.954Z,51.63
2023-03-12T02:36:20.852Z,51.81
2023-03-12T02:36:52.722Z,51.83
2023-03-12T02:37:24.460Z,51.77
2023-03-12T02:37:56.815Z,51.70
2023-03-12T02:38:49.749Z,51.45
2023-03-12T02:39:21.940Z,51.55
2023-03-12T02:40:09.817Z,51.60
2023-03-12T02:40:46.639Z,51.92
2023-03-12T02:41:34.204Z,51.75
2023-03-12T02:42:06.196Z,51.44
2023-03-12T02:42:38.073Z,51.73
2023-03-12T02:43:11.515Z,51.70
2023-03-12T02:43:47.375Z,52.05
2023-03-12T02:44:22.458Z,51.38
2023-03-12T02:44:54.304Z,52.02
2023-03-12T02:45:26.577Z,51.54
2023-03-12T02:45:58.962Z,51.70
2023-03-12T02:46:39.900Z,51.70
2023-03-12T02:47:11.936Z,51.58
2023-03-12T02:47:43.645Z,51.90
2023-03-12T02:48:15.338Z,51.82
2023-03-12T02:48:47.147Z,52.39
2023-03-12T02:49:21.412Z,51.97
2023-03-12T02:49:53.181Z,51.82
2023-03-12T02:50:24.887Z,51.73
2023-03-12T02:50:56.598Z,52.76
2023-03-12T02:51:28.338Z,52.34
2023-03-12T02:52:00.803Z,52.59
2023-03-12T02:52:35.692Z,52.61
2023-03-12T02:53:07.366Z,53.01
2023-03-12T02:53:39.653Z,52.97
2023-03-12T02:54:12.964Z,52.68
2023-03-12T02:54:44.647Z,52.33
2023-03-12T02:55:16.467Z,52.05
2023-03-12T02:55:48.291Z,52.05
2023-03-12T02:56:20.089Z,51.70
2023-03-12T02:56:52.552Z,52.28
2023-03-12T02:57:24.262Z,52.40
2023-03-12T02:57:55.940Z,52.23
2023-03-12T02:58:27.781Z,51.88
2023-03-12T02:59:01.032Z,52.01
2023-03-12T02:59:33.795Z,52.01
2023-03-12T03:00:12.564Z,52.11
2023-03-12T03:00:44.300Z,52.36
2023-03-12T03:01:16.949Z,52.07
2023-03-12T03:01:54.488Z,52.35
2023-03-12T03:02:26.219Z,52.67
2023-03-12T03:03:01.187Z,52.86
2023-03-12T03:03:32.888Z,52.74
2023-03-12T03:04:06.909Z,52.74
2023-03-12T03:04:38.782Z,52.96
2023-03-12T03:05:11.869Z,53.73
2023-03-12T03:05:43.845Z,53.28
2023-03-12T03:06:16.398Z,53.90
2023-03-12T03:06:48.715Z,53.72
2023-03-12T03:07:20.638Z,52.97
2023-03-12T03:07:52.544Z,53.20
2023-03-12T03:08:24.234Z,53.04
2023-03-12T03:08:56.138Z,53.33
2023-03-12T03:09:27.854Z,53.52
2023-03-12T03:10:04.530Z,52.84
2023-03-12T03:10:36.276Z,53.44
2023-03-12T03:11:08.018Z,53.47
2023-03-12T03:11:40.255Z,53.91
2023-03-12T03:12:11.952Z,53.60
2023-03-12T03:12:44.474Z,53.99
2023-03-12T03:13:16.196Z,54.53
2023-03-12T03:13:47.860Z,54.41
2023-03-12T03:14:19.984Z,54.27
2023-03-12T03:14:51.644Z,54.65
2023-03-12T03:15:23.799Z,54.25
2023-03-12T03:15:57.839Z,54.43
2023-03-12T03:16:29.880Z,54.49
2023-03-12T03:17:01.586Z,54.99
2023-03-12T03:17:33.296Z,55.01
2023-03-12T03:18:05.532Z,55.10
2023-03-12T03:18:37.186Z,55.26
2023-03-12T03:19:08.957Z,54.69
2023-03-12T03:19:40.805Z,55.03
2023-03-12T03:20:12.687Z,54.97
2023-03-12T03:20:45.077Z,55.33
2023-03-12T03:21:17.808Z,55.34
2023-03-12T03:21:49.594Z,54.86
2023-03-12T03:22:22.921Z,54.82
2023-03-12T03:22:54.613Z,54.58
2023-03-12T03:23:26.388Z,54.53
2023-03-12T03:23:58.114Z,54.79
2023-03-12T03:24:29.789Z,55.14
2023-03-12T03:25:01.591Z,55.07
2023-03-12T03:25:33.930Z,55.35
2023-03-12T03:26:05.690Z,55.28
2023-03-12T03:26:37.598Z,55.26
2023-03-12T03:27:09.465Z,55.24
2023-03-12T03:27:41.134Z,55.12
2023-03-12T03:28:12.818Z,54.67
2023-03-12T03:29:15.394Z,55.00
2023-03-12T03:29:47.126Z,55.64
2023-03-12T03:30:19.297Z,55.39
2023-03-12T03:30:55.531Z,55.48
2023-03-12T03:31:27.365Z,56.05
2023-03-12T03:31:59.234Z,55.81
2023-03-12T03:32:30.970Z,56.38
2023-03-12T03:33:02.680Z,56.00
2023-03-12T03:33:36.693Z,56.00
2023-03-12T03:34:08.362Z,56.54
2023-03-12T03:34:40.064Z,56.49
2023-03-12T03:35:11.942Z,56.36
2023-03-12T03:35:43.636Z,56.86
2023-03-12T03:36:15.718Z,56.49
2023-03-12T03:36:47.461Z,56.86
2023-03-12T03:37:19.211Z,56.73
2023-03-12T03:37:50.880Z,56.92
2023-03-12T03:38:24.300Z,56.62
2023-03-12T03:38:56.026Z,56.70
2023-03-12T03:39:29.569Z,57.08
2023-03-12T03:40:01.392Z,57.17
2023-03-12T03:40:33.568Z,57.96
2023-03-12T03:41:05.308Z,57.64
2023-03-12T03:41:37.373Z,57.71
2023-03-12T03:42:09.193Z,57.74
2023-03-12T03:42:41.121Z,57.63
2023-03-12T03:43:13.121Z,57.37
2023-03-12T03:43:44.896Z,57.46
2023-03-12T03:44:16.606Z,57.58
2023-03-12T03:44:48.285Z,57.50
2023-03-12T03:45:19.955Z,57.60
2023-03-12T03:46:02.818Z,57.76
2023-03-12T03:46:38.143Z,57.95
2023-03-12T03:47:09.943Z,57.88
2023-03-12T03:47:41.663Z,58.41
2023-03-12T03:48:13.880Z,58.35
2023-03-12T03:48:45.592Z,58.47
2023-03-12T03:49:17.424Z,58.17
2023-03-12T03:49:49.216Z,57.92
2023-03-12T03:50:21.097Z,57.97
2023-03-12T03:50:53.282Z,57.68
2023-03-12T03:51:24.961Z,57.81
2023-03-12T03:51:56.764Z,57.56
2023-03-12T03:52:28.465Z,57.94
2023-03-12T03:53:00.132Z,57.48
2023-03-12T03:53:32.761Z,57.28
2023-03-12T03:54:04.626Z,57.18
2023-03-12T03:54:36.427Z,57.75
2023-03-12T03:55:09.036Z,57.78
2023-03-12T03:55:41.106Z,57.35
2023-03-12T03:56:15.846Z,57.86
2023-03-12T03:56:48.448Z,57.26
2023-03-12T03:57:20.125Z,57.74
2023-03-12T03:57:52.007Z,57.93
2023-03-12T03:58:23.723Z,58.09
2023-03-12T03:58:55.399Z,57.62
2023-03-12T03:59:27.144Z,57.73
2023-03-12T04:00:03.657Z,58.44
2023-03-12T04:00:35.689Z,57.84
2023-03-12T04:01:07.411Z,58.03
2023-03-12T04:01:39.355Z,57.73
2023-03-12T04:02:11.020Z,58.16
2023-03-12T04:02:42.712Z,57.70
2023-03-12T04:03:14.537Z,57.80
2023-03-12T04:03:46.442Z,57.86
2023-03-12T04:04:18.441Z,58.14
2023-03-12T04:04:50.568Z,58.60
2023-03-12T04:05:22.397Z,58.03
2023-03-12T04:05:56.188Z,59.13
2023-03-12T04:06:29.930Z,58.79
2023-03-12T04:07:01.624Z,58.65
2023-03-12T04:07:33.429Z,58.69
2023-03-12T04:08:06.273Z,59.07
2023-03-12T04:08:38.788Z,59.16
2023-03-12T04:09:11.150Z,58.81
2023-03-12T04:09:43.626Z,58.96
2023-03-12T04:10:15.611Z,58.21
2023-03-12T04:10:47.276Z,58.51
2023-03-12T04:11:21.788Z,58.80
2023-03-12T04:11:53.559Z,58.72
2023-03-12T04:12:26.141Z,58.51
2023-03-12T04:12:58.309Z,58.37
2023-03-12T04:13:29.954Z,58.85
2023-03-12T04:14:01.680Z,58.43
2023-03-12T04:14:33.612Z,58.83
2023-03-12T04:15:06.334Z,59.21
2023-03-12T04:15:38.173Z,58.83
2023-03-12T04:16:10.411Z,58.93
2023-03-12T04:16:42.162Z,58.85
2023-03-12T04:17:13.871Z,58.67
2023-03-12T04:17:45.857Z,58.69
2023-03-12T04:18:18.003Z,58.35
2023-03-12T04:18:49.849Z,58.70
2023-03-12T04:19:21.596Z,59.27
2023-03-12T04:19:53.629Z,58.97
2023-03-12T04:20:25.334Z,58.78
2023-03-12T04:20:56.993Z,59.09
2023-03-12T04:21:28.731Z,59.13
2023-03-12T04:22:00.469Z,59.29
2023-03-12T04:22:32.203Z,59.16
2023-03-12T04:23:03.891Z,59.45
2023-03-12T04:23:36.912Z,59.28
2023-03-12T04:24:14.864Z,59.58
2023-03-12T04:24:46.540Z,59.14
2023-03-12T04:25:18.515Z,58.81
2023-03-12T04:25:50.298Z,58.81
2023-03-12T04:26:22.064Z,59.17
2023-03-12T04:26:53.802Z,59.17
2023-03-12T04:27:25.894Z,59.07
2023-03-12T04:27:57.622Z,59.53
2023-03-12T04:28:29.362Z,59.27
2023-03-12T04:29:01.275Z,59.65
2023-03-12T04:29:32.976Z,59.38
2023-03-12T04:30:05.072Z,59.47
2023-03-12T04:30:38.381Z,59.08
2023-03-12T04:31:11.887Z,59.25
2023-03-12T04:31:43.814Z,59.63
2023-03-12T04:32:16.117Z,59.49
2023-03-12T04:32:48.092Z,59.43
2023-03-12T04:33:19.757Z,59.78
2023-03-12T04:33:51.443Z,59.49
2023-03-12T04:34:23.114Z,59.42
2023-03-12T04:34:54.869Z,59.46
2023-03-12T04:35:26.575Z,59.68
2023-03-12T04:35:59.274Z,59.69
2023-03-12T04:36:31.424Z,59.46
2023-03-12T04:37:03.703Z,59.74
2023-03-12T04:37:35.790Z,59.51
2023-03-12T04:38:07.532Z,59.35
2023-03-12T04:38:39.288Z,60.02
2023-03-12T04:39:11.191Z,59.63
2023-03-12T04:39:44.816Z,59.71
2023-03-12T04:40:20.159Z,60.02
2023-03-12T04:41:09.249Z,60.06
2023-03-12T04:41:40.942Z,59.89
2023-03-12T04:42:12.809Z,60.38
2023-03-12T04:42:44.659Z,60.50
2023-03-12T04:43:20.139Z,60.32
2023-03-12T04:43:52.058Z,60.34
2023-03-12T04:44:23.869Z,61.00
2023-03-12T04:44:55.656Z,60.39
2023-03-12T04:45:27.330Z,60.58
2023-03-12T04:45:59.637Z,60.75
2023-03-12T04:46:32.863Z,60.49
2023-03-12T04:47:04.829Z,60.88
2023-03-12T04:47:36.546Z,61.10
2023-03-12T04:48:08.271Z,60.41
2023-03-12T04:48:39.984Z,61.02
2023-03-12T04:49:11.852Z,60.66
2023-03-12T04:49:44.197Z,60.78
2023-03-12T04:50:15.931Z,60.71
2023-03-12T04:50:47.735Z,60.96
2023-03-12T04:51:19.635Z,60.69
2023-03-12T04:51:51.504Z,60.85
2023-03-12T04:52:23.206Z,60.67
2023-03-12T04:52:54.922Z,60.44
2023-03-12T04:53:26.814Z,60.92
2023-03-12T04:53:59.614Z,60.76
2023-03-12T04:54:32.022Z,61.17
2023-03-12T04:55:04.333Z,61.12
2023-03-12T04:55:36.026Z,60.87
2023-03-12T04:56:07.938Z,60.63
2023-03-12T04:56:39.667Z,60.90
2023-03-12T04:57:11.370Z,60.87
2023-03-12T04:57:43.301Z,60.58
2023-03-12T04:58:16.360Z,60.94
2023-03-12T04:58:48.587Z,60.44
2023-03-12T04:59:20.276Z,60.92
2023-03-12T04:59:52.381Z,60.87
2023-03-12T05:00:24.176Z,61.20
2023-03-12T05:00:55.927Z,61.20
2023-03-12T05:01:28.996Z,61.11
2023-03-12T05:02:00.739Z,61.79
2023-03-12T05:02:32.453Z,61.80
2023-03-12T05:03:04.225Z,62.22
2023-03-12T05:03:36.130Z,62.24
2023-03-12T05:04:08.106Z,61.72
2023-03-12T05:04:39.855Z,62.13
2023-03-12T05:05:11.964Z,61.75
2023-03-12T05:05:44.025Z,61.81
2023-03-12T05:06:15.724Z,61.53
2023-03-12T05:06:47.404Z,61.29
2023-03-12T05:07:19.925Z,61.34
2023-03-12T05:07:52.065Z,61.15
2023-03-12T05:08:23.742Z,61.40
2023-03-12T05:08:55.466Z,61.47
2023-03-12T05:09:27.205Z,61.15
2023-03-12T05:09:58.898Z,60.90
2023-03-12T05:10:30.929Z,61.40
2023-03-12T05:11:02.801Z,61.19
2023-03-12T05:11:34.516Z,61.08
2023-03-12T05:12:06.754Z,61.21
2023-03-12T05:12:39.528Z,61.54
2023-03-12T05:13:21.808Z,61.67
2023-03-12T05:13:54.115Z,61.08
2023-03-12T05:14:26.323Z,61.20
2023-03-12T05:14:58.067Z,61.06
2023-03-12T05:15:29.760Z,61.28
2023-03-12T05:16:01.532Z,60.88
2023-03-12T05:16:33.302Z,60.48
2023-03-12T05:17:05.430Z,60.52
2023-03-12T05:17:37.229Z,60.92
2023-03-12T05:18:08.972Z,60.78
2023-03-12T05:18:41.011Z,60.80
2023-03-12T05:19:12.888Z,60.94
2023-03-12T05:19:45.713Z,60.86
2023-03-12T05:20:20.319Z,60.91
2023-03-12T05:21:18.028Z,59.96
2023-03-12T05:21:49.865Z,59.95
2023-03-12T05:22:21.590Z,60.08
2023-03-12T05:22:53.299Z,60.58
2023-03-12T05:23:24.979Z,60.79
2023-03-12T05:23:56.822Z,60.36
2023-03-12T05:24:28.667Z,60.35
2023-03-12T05:25:02.344Z,60.14
2023-03-12T05:25:34.186Z,59.72
2023-03-12T05:26:06.855Z,59.83
2023-03-12T05:26:38.846Z,59.96
2023-03-12T05:27:11.641Z,60.34
2023-03-12T05:27:43.388Z,60.90
2023-03-12T05:28:15.089Z,61.38
2023-03-12T05:28:46.924Z,61.18
2023-03-12T05:29:18.617Z,60.81
2023-03-12T05:29:50.314Z,60.66
2023-03-12T05:30:22.438Z,60.54
2023-03-12T05:30:58.625Z,60.85
2023-03-12T05:31:35.510Z,60.70
2023-03-12T05:32:10.349Z,60.15
2023-03-12T05:32:42.056Z,60.47
2023-03-12T05:33:13.802Z,60.26
2023-03-12T05:33:45.965Z,60.18
2023-03-12T05:34:17.640Z,59.95
2023-03-12T05:34:49.440Z,59.94
2023-03-12T05:35:21.167Z,60.07
2023-03-12T05:35:53.382Z,60.24
2023-03-12T05:36:25.529Z,60.50
2023-03-12T05:36:58.242Z,60.71
2023-03-12T05:37:30.901Z,60.40
2023-03-12T05:38:02.637Z,60.22
2023-03-12T05:38:34.304Z,59.43
2023-03-12T05:39:06.096Z,59.51
2023-03-12T05:39:38.218Z,59.33
2023-03-12T05:40:12.032Z,59.51
2023-03-12T05:40:44.002Z,59.27
2023-03-12T05:41:22.380Z,59.42
2023-03-12T05:41:56.942Z,59.07
2023-03-12T05:42:28.633Z,59.04
2023-03-12T05:43:00.307Z,58.77
2023-03-12T05:43:33.040Z,59.31
2023-03-12T05:44:04.809Z,58.44
2023-03-12T05:44:36.507Z,58.84
2023-03-12T05:45:08.777Z,58.79
2023-03-12T05:45:40.547Z,58.75
2023-03-12T05:46:13.060Z,59.09
2023-03-12T05:46:45.138Z,58.80
2023-03-12T05:47:17.181Z,59.04
2023-03-12T05:47:48.936Z,58.76
2023-03-12T05:48:20.667Z,58.69
2023-03-12T05:48:52.463Z,58.62
2023-03-12T05:49:24.242Z,58.37
2023-03-12T05:49:55.947Z,58.49
2023-03-12T05:50:27.702Z,58.46
2023-03-12T05:50:59.505Z,58.47
2023-03-12T05:51:31.242Z,58.29
2023-03-12T05:52:02.937Z,58.12
2023-03-12T05:52:34.645Z,58.12
2023-03-12T05:53:06.416Z,58.41
2023-03-12T05:53:38.276Z,58.40
2023-03-12T05:54:10.523Z,57.83
2023-03-12T05:54:42.469Z,57.95
2023-03-12T05:55:14.159Z,57.78
2023-03-12T05:55:45.842Z,57.53
2023-03-12T05:56:18.473Z,57.83
2023-03-12T05:56:50.216Z,58.33
2023-03-12T05:57:21.901Z,57.53
2023-03-12T05:57:53.605Z,57.59
2023-03-12T05:58:25.326Z,57.37
2023-03-12T05:58:57.154Z,57.00
2023-03-12T05:59:29.550Z,57.12
2023-03-12T06:00:01.302Z,56.80
2023-03-12T06:00:38.001Z,57.02
2023-03-12T06:01:22.567Z,56.64
2023-03-12T06:01:54.308Z,56.90
2023-03-12T06:02:26.106Z,56.59
2023-03-12T06:02:58.034Z,56.52
2023-03-12T06:03:29.780Z,56.48
2023-03-12T06:04:01.471Z,56.00
2023-03-12T06:04:33.170Z,56.05
2023-03-12T06:05:05.477Z,56.22
2023-03-12T06:05:38.119Z,56.26
2023-03-12T06:06:10.927Z,56.91
2023-03-12T06:06:42.695Z,56.37
2023-03-12T06:07:14.387Z,56.43
2023-03-12T06:07:46.146Z,56.07
2023-03-12T06:08:17.837Z,55.57
2023-03-12T06:08:51.128Z,55.47
2023-03-12T06:09:23.048Z,55.40
2023-03-12T06:09:54.786Z,55.92
2023-03-12T06:10:26.594Z,55.87
2023-03-12T06:10:58.281Z,55.44
2023-03-12T06:11:30.114Z,54.86
2023-03-12T06:12:01.783Z,55.01
2023-03-12T06:12:33.542Z,55.25
2023-03-12T06:13:05.455Z,55.32
2023-03-12T06:13:37.167Z,54.80
2023-03-12T06:14:09.821Z,54.54
2023-03-12T06:14:41.593Z,54.31
2023-03-12T06:15:13.277Z,54.48
2023-03-12T06:15:44.940Z,54.16
2023-03-12T06:16:20.819Z,54.06
2023-03-12T06:16:52.668Z,54.09
2023-03-12T06:17:24.504Z,53.73
2023-03-12T06:17:56.289Z,53.60
2023-03-12T06:18:28.027Z,53.56
2023-03-12T06:19:02.143Z,53.46
2023-03-12T06:19:33.846Z,53.02
2023-03-12T06:20:06.498Z,52.88
2023-03-12T06:20:38.164Z,53.38
2023-03-12T06:21:18.591Z,53.10
2023-03-12T06:21:55.252Z,53.21
2023-03-12T06:22:27.040Z,52.93
2023-03-12T06:22:58.724Z,52.94
2023-03-12T06:23:30.403Z,52.28
2023-03-12T06:24:03.185Z,52.14
2023-03-12T06:24:34.878Z,51.74
2023-03-12T06:25:07.127Z,51.85
2023-03-12T06:25:38.803Z,51.46
2023-03-12T06:26:12.728Z,51.68
2023-03-12T06:26:44.509Z,51.31
2023-03-12T06:27:17.152Z,51.11
2023-03-12T06:27:48.881Z,51.47
2023-03-12T06:28:20.578Z,51.16
2023-03-12T06:28:53.566Z,51.20
2023-03-12T06:29:25.366Z,51.08
2023-03-12T06:29:57.402Z,50.50
2023-03-12T06:30:29.085Z,50.12
2023-03-12T06:31:01.741Z,49.28
2023-03-12T06:31:33.610Z,49.45
2023-03-12T06:32:05.440Z,49.36
2023-03-12T06:32:37.184Z,49.25
2023-03-12T06:33:09.322Z,48.65
2023-03-12T06:33:41.322Z,48.23
2023-03-12T06:34:13.116Z,47.19
2023-03-12T06:34:45.300Z,46.67
2023-03-12T06:35:17.207Z,46.30
2023-03-12T06:35:49.072Z,45.90
2023-03-12T06:36:23.110Z,45.92
2023-03-12T06:36:54.844Z,46.24
2023-03-12T06:37:27.906Z,46.08
2023-03-12T06:37:59.733Z,45.96
2023-03-12T06:38:31.591Z,46.04
2023-03-12T06:39:06.264Z,46.10
2023-03-12T06:39:38.751Z,46.34
2023-03-12T06:40:13.026Z,46.17
2023-03-12T06:40:57.069Z,45.98
2023-03-12T06:41:28.963Z,45.18
2023-03-12T06:42:00.679Z,44.90
2023-03-12T06:42:32.427Z,45.00
2023-03-12T06:43:04.176Z,44.95
2023-03-12T06:43:37.571Z,45.46
2023-03-12T06:44:09.383Z,44.31
2023-03-12T06:44:41.685Z,43.87
2023-03-12T06:45:13.649Z,43.33
2023-03-12T06:45:45.625Z,43.59
2023-03-12T06:46:22.478Z,43.44
2023-03-12T06:46:54.338Z,43.62
2023-03-12T06:47:26.021Z,43.20
2023-03-12T06:47:57.733Z,42.97
2023-03-12T06:48:33.594Z,42.11
2023-03-12T06:49:05.710Z,40.76
2023-03-12T06:49:38.226Z,39.72
2023-03-12T06:50:10.476Z,39.79
2023-03-12T06:50:42.210Z,39.99
2023-03-12T06:51:16.004Z,39.49
2023-03-12T06:51:47.739Z,39.80
2023-03-12T06:52:19.614Z,39.69
2023-03-12T06:52:51.320Z,39.33
2023-03-12T06:53:23.584Z,39.23
2023-03-12T06:53:55.317Z,39.48
2023-03-12T06:54:27.023Z,40.12
2023-03-12T06:54:58.695Z,39.71
2023-03-12T06:55:30.400Z,40.26
2023-03-12T06:56:02.195Z,39.88
2023-03-12T06:56:34.008Z,39.52
2023-03-12T06:57:05.741Z,39.60
2023-03-12T06:57:37.462Z,38.97
2023-03-12T06:58:09.187Z,37.98
2023-03-12T06:58:41.581Z,38.37
2023-03-12T06:59:13.267Z,37.95
2023-03-12T06:59:44.975Z,37.41
2023-03-12T07:00:16.926Z,36.39
2023-03-12T07:00:48.641Z,36.59
2023-03-12T07:01:20.563Z,37.07
2023-03-12T07:01:52.294Z,36.12
2023-03-12T07:02:24.077Z,36.34
2023-03-12T07:02:57.123Z,36.45
2023-03-12T07:03:28.869Z,36.57
2023-03-12T07:04:00.621Z,36.54
2023-03-12T07:04:32.320Z,36.37
2023-03-12T07:05:04.325Z,36.39
2023-03-12T07:05:36.084Z,35.56
2023-03-12T07:06:15.080Z,34.97